This is the latest recevied weather packets stored in our database for station/object IU8HRV-10. If no packets are shown the sender has not sent any weather packets the latest 10 day(s).
| Time | Temp. | Humidity | Pressure | Rain* | Wind** | Luminosity | Snow |
|---|---|---|---|---|---|---|---|
| 1777539549 | 22.22° C | 39% | 1017 hPa | - | - | - | - |
| 1777538648 | 21.67° C | 40% | 1016 hPa | - | - | - | - |
| 1777537747 | 21.67° C | 41% | 1017 hPa | - | - | - | - |
| 1777536846 | 20.56° C | 42% | 1017 hPa | - | - | - | - |
| 1777535945 | 20.56° C | 42% | 1017 hPa | - | - | - | - |
| 1777535043 | 20.56° C | 42% | 1017 hPa | - | - | - | - |
| 1777534142 | 20.56° C | 42% | 1017 hPa | - | - | - | - |
| 1777533241 | 21.11° C | 40% | 1017 hPa | - | - | - | - |
| 1777532339 | 22.78° C | 37% | 1017 hPa | - | - | - | - |
| 1777531438 | 22.22° C | 38% | 1016 hPa | - | - | - | - |
| 1777530537 | 21.11° C | 40% | 1016 hPa | - | - | - | - |
| 1777529636 | 20.56° C | 41% | 1016 hPa | - | - | - | - |
| 1777528735 | 19.44° C | 43% | 1016 hPa | - | - | - | - |
| 1777527834 | 19.44° C | 43% | 1017 hPa | - | - | - | - |
| 1777526933 | 19.44° C | 43% | 1016 hPa | - | - | - | - |
| 1777526032 | 19.44° C | 42% | 1016 hPa | - | - | - | - |
| 1777525131 | 19.44° C | 42% | 1016 hPa | - | - | - | - |
| 1777524230 | 19.44° C | 42% | 1016 hPa | - | - | - | - |
| 1777523329 | 20° C | 41% | 1016 hPa | - | - | - | - |
| 1777522428 | 20° C | 41% | 1016 hPa | - | - | - | - |
| 1777521526 | 20° C | 40% | 1015 hPa | - | - | - | - |
| 1777520625 | 20° C | 40% | 1016 hPa | - | - | - | - |
| 1777519724 | 20.56° C | 40% | 1016 hPa | - | - | - | - |
| 1777518822 | 20.56° C | 39% | 1016 hPa | - | - | - | - |
| 1777517921 | 21.11° C | 38% | 1016 hPa | - | - | - | - |
* Rain since midnight (hover to see other rain measurements)
** Current wind speed in m/s (hover to see current wind gust speed)